KCMH Airport Diagram

We have created a template for each of the higher traffic airports in the vZID airspace. They include KCMH, KCRW, KCVG, KDAY, KIND, KLEX and KSDF. You wil find usefull information including the airport diagram, weather, and specific airport procedures.

KCMH Weather

[Source: ADDS]
METAR
KCMH 251251Z 00000KT 9SM SCT250 22/18 A3007 RMK AO2 SLP176 T02170183 =
TAF
KCMH 251120Z 2512/2612 07003KT P6SM SCT250 FM251500 13004KT P6SM SCT060 BKN250 FM260000 00000KT P6SM SCT250 =
JSN Epic template designed by JoomlaShine.com